createdAt,value
2024-03-02T00:01:46.151Z,98660.22
2024-03-02T00:04:13.812Z,98652.72
2024-03-02T00:06:41.580Z,98654.06
2024-03-02T00:09:10.572Z,98654.59
2024-03-02T00:11:38.288Z,98651.16
2024-03-02T00:14:05.916Z,98653.34
2024-03-02T00:16:34.889Z,98651.34
2024-03-02T00:19:08.144Z,98652.44
2024-03-02T00:21:36.201Z,98653.53
2024-03-02T00:24:19.644Z,98652.44
2024-03-02T00:26:47.361Z,98660.75
2024-03-02T00:29:20.236Z,98658.03
2024-03-02T00:31:49.610Z,98659.09
2024-03-02T00:34:19.771Z,98655.84
2024-03-02T00:36:47.901Z,98657.34
2024-03-02T00:39:18.194Z,98662.66
2024-03-02T00:41:45.935Z,98660.22
2024-03-02T00:44:15.168Z,98662.25
2024-03-02T00:46:44.768Z,98658.28
2024-03-02T00:49:20.699Z,98657.47
2024-03-02T00:51:50.930Z,98650.41
2024-03-02T00:54:22.411Z,98655.81
2024-03-02T00:56:50.505Z,98654.44
2024-03-02T00:59:18.159Z,98652.56
2024-03-02T01:01:46.108Z,98647.19
2024-03-02T01:04:15.183Z,98649.09
2024-03-02T01:06:43.310Z,98638.78
2024-03-02T01:09:13.437Z,98650.94
2024-03-02T01:11:41.128Z,98652.13
2024-03-02T01:14:08.865Z,98644.38
2024-03-02T01:16:36.482Z,98641.50
2024-03-02T01:19:05.248Z,98649.03
2024-03-02T01:21:33.077Z,98641.38
2024-03-02T01:24:00.765Z,98638.38
2024-03-02T01:26:29.671Z,98645.34
2024-03-02T01:28:57.344Z,98636.88
2024-03-02T01:31:24.969Z,98632.78
2024-03-02T01:33:52.593Z,98642.44
2024-03-02T01:36:20.319Z,98646.03
2024-03-02T01:38:47.893Z,98636.94
2024-03-02T01:41:15.585Z,98642.53
2024-03-02T01:43:44.601Z,98639.88
2024-03-02T01:46:12.474Z,98640.53
2024-03-02T01:48:40.133Z,98647.63
2024-03-02T01:51:08.998Z,98646.81
2024-03-02T01:53:36.707Z,98644.56
2024-03-02T01:56:04.858Z,98648.00
2024-03-02T01:58:32.796Z,98647.72
2024-03-02T02:01:02.586Z,98647.03
2024-03-02T02:03:30.413Z,98640.41
2024-03-02T02:05:58.200Z,98631.69
2024-03-02T02:08:25.813Z,98639.88
2024-03-02T02:10:53.427Z,98640.22
2024-03-02T02:13:21.072Z,98628.00
2024-03-02T02:15:48.784Z,98627.88
2024-03-02T02:18:17.817Z,98627.19
2024-03-02T02:20:45.430Z,98626.34
2024-03-02T02:23:14.692Z,98617.47
2024-03-02T02:25:42.358Z,98624.31
2024-03-02T02:28:10.142Z,98623.34
2024-03-02T02:30:37.767Z,98629.06
2024-03-02T02:33:05.855Z,98618.16
2024-03-02T02:35:33.515Z,98617.88
2024-03-02T02:38:01.904Z,98613.28
2024-03-02T02:40:31.724Z,98615.03
2024-03-02T02:43:00.181Z,98623.72
2024-03-02T02:45:28.068Z,98609.28
2024-03-02T02:47:56.145Z,98607.25
2024-03-02T02:50:23.747Z,98604.72
2024-03-02T02:52:51.537Z,98587.09
2024-03-02T02:55:19.122Z,98590.50
2024-03-02T02:57:48.659Z,98596.06
2024-03-02T03:00:19.753Z,98594.63
2024-03-02T03:02:50.697Z,98596.16
2024-03-02T03:05:19.390Z,98597.66
2024-03-02T03:07:47.359Z,98594.13
2024-03-02T03:10:15.741Z,98600.59
2024-03-02T03:12:45.062Z,98603.66
2024-03-02T03:15:15.192Z,98608.91
2024-03-02T03:17:43.004Z,98594.38
2024-03-02T03:20:11.691Z,98607.06
2024-03-02T03:22:39.425Z,98603.91
2024-03-02T03:25:09.278Z,98606.38
2024-03-02T03:27:37.353Z,98605.28
2024-03-02T03:30:07.189Z,98607.06
2024-03-02T03:32:36.386Z,98611.38
2024-03-02T03:35:04.452Z,98608.22
2024-03-02T03:37:34.323Z,98613.63
2024-03-02T03:40:03.251Z,98612.44
2024-03-02T03:42:30.897Z,98613.47
2024-03-02T03:44:58.558Z,98608.72
2024-03-02T03:47:26.221Z,98612.31
2024-03-02T03:49:55.237Z,98609.47
2024-03-02T03:52:23.096Z,98613.66
2024-03-02T03:54:50.715Z,98611.50
2024-03-02T03:57:18.998Z,98618.31
2024-03-02T03:59:47.315Z,98616.59
2024-03-02T04:02:15.017Z,98612.97
2024-03-02T04:04:42.605Z,98600.78
2024-03-02T04:07:11.648Z,98619.81
2024-03-02T04:09:39.540Z,98605.19
2024-03-02T04:12:07.397Z,98607.69
2024-03-02T04:14:35.122Z,98610.53
2024-03-02T04:17:02.793Z,98597.06
2024-03-02T04:19:30.420Z,98605.25
2024-03-02T04:22:00.019Z,98621.31
2024-03-02T04:24:31.138Z,98618.66
2024-03-02T04:26:58.766Z,98618.31
2024-03-02T04:29:26.304Z,98618.69
2024-03-02T04:31:53.918Z,98618.06
2024-03-02T04:34:21.560Z,98628.06
2024-03-02T04:36:49.557Z,98618.34
2024-03-02T04:39:17.552Z,98619.91
2024-03-02T04:41:46.795Z,98612.16
2024-03-02T04:44:14.680Z,98610.28
2024-03-02T04:46:42.274Z,98610.59
2024-03-02T04:49:10.125Z,98613.78
2024-03-02T04:51:37.854Z,98622.59
2024-03-02T04:54:05.611Z,98620.59
2024-03-02T04:56:45.547Z,98614.69
2024-03-02T04:59:14.655Z,98618.63
2024-03-02T05:01:42.309Z,98614.66
2024-03-02T05:04:11.687Z,98612.84
2024-03-02T05:06:40.669Z,98619.78
2024-03-02T05:09:08.493Z,98618.84
2024-03-02T05:12:04.024Z,98611.97
2024-03-02T05:14:33.095Z,98625.09
2024-03-02T05:17:00.672Z,98615.66
2024-03-02T05:19:28.295Z,98619.25
2024-03-02T05:21:55.978Z,98616.75
2024-03-02T05:24:23.622Z,98609.50
2024-03-02T05:26:51.223Z,98615.06
2024-03-02T05:29:18.889Z,98620.84
2024-03-02T05:31:47.851Z,98617.69
2024-03-02T05:34:15.519Z,98630.16
2024-03-02T05:36:43.566Z,98630.34
2024-03-02T05:39:11.483Z,98631.16
2024-03-02T05:41:39.618Z,98628.78
2024-03-02T05:44:07.273Z,98634.94
2024-03-02T05:46:34.890Z,98620.56
2024-03-02T05:49:04.774Z,98618.19
2024-03-02T05:51:32.372Z,98621.13
2024-03-02T05:54:00.029Z,98635.28
2024-03-02T05:56:27.708Z,98625.13
2024-03-02T05:59:08.199Z,98627.25
2024-03-02T06:01:35.924Z,98630.91
2024-03-02T06:04:05.220Z,98625.50
2024-03-02T06:06:33.581Z,98625.13
2024-03-02T06:09:01.557Z,98634.09
2024-03-02T06:11:29.161Z,98624.69
2024-03-02T06:13:56.803Z,98633.03
2024-03-02T06:16:24.484Z,98641.91
2024-03-02T06:18:52.453Z,98642.91
2024-03-02T06:21:21.579Z,98654.28
2024-03-02T06:23:49.198Z,98661.03
2024-03-02T06:26:16.900Z,98656.00
2024-03-02T06:28:44.946Z,98662.44
2024-03-02T06:31:12.691Z,98655.63
2024-03-02T06:33:40.195Z,98668.84
2024-03-02T06:36:09.554Z,98680.81
2024-03-02T06:38:41.113Z,98668.13
2024-03-02T06:41:09.917Z,98674.75
2024-03-02T06:43:37.667Z,98667.13
2024-03-02T06:46:06.035Z,98672.16
2024-03-02T06:48:33.750Z,98675.34
2024-03-02T06:51:02.438Z,98665.94
2024-03-02T06:53:31.119Z,98671.72
2024-03-02T06:56:00.077Z,98659.13
2024-03-02T06:58:28.153Z,98646.53
2024-03-02T07:00:55.775Z,98646.34
2024-03-02T07:03:23.787Z,98652.59
2024-03-02T07:05:52.293Z,98666.53
2024-03-02T07:08:19.870Z,98665.47
2024-03-02T07:10:48.485Z,98670.94
2024-03-02T07:13:17.471Z,98662.72
2024-03-02T07:16:12.221Z,98664.56
2024-03-02T07:18:42.689Z,98670.41
2024-03-02T07:21:10.440Z,98664.09
2024-03-02T07:23:38.152Z,98674.00
2024-03-02T07:28:39.285Z,98666.28
2024-03-02T07:31:07.190Z,98666.16
2024-03-02T07:33:35.092Z,98678.06
2024-03-02T07:36:04.969Z,98668.44
2024-03-02T07:38:35.050Z,98666.81
2024-03-02T07:41:03.673Z,98653.03
2024-03-02T07:43:31.818Z,98674.03
2024-03-02T07:46:00.836Z,98664.97
2024-03-02T07:48:28.760Z,98664.03
2024-03-02T07:50:56.359Z,98662.53
2024-03-02T07:53:23.971Z,98666.84
2024-03-02T07:55:51.559Z,98669.06
2024-03-02T07:58:20.496Z,98674.22
2024-03-02T08:00:49.400Z,98675.25
2024-03-02T08:03:19.270Z,98692.03
2024-03-02T08:05:47.114Z,98680.38
2024-03-02T08:08:14.698Z,98683.16
2024-03-02T08:10:42.257Z,98682.09
2024-03-02T08:13:09.820Z,98683.59
2024-03-02T08:15:37.556Z,98680.56
2024-03-02T08:18:06.093Z,98684.66
2024-03-02T08:20:35.051Z,98680.81
2024-03-02T08:23:02.733Z,98681.84
2024-03-02T08:25:30.371Z,98679.59
2024-03-02T08:27:58.680Z,98686.75
2024-03-02T08:30:26.412Z,98683.31
2024-03-02T08:32:54.021Z,98670.28
2024-03-02T08:35:23.428Z,98678.31
2024-03-02T08:37:52.459Z,98677.13
2024-03-02T08:40:20.388Z,98669.88
2024-03-02T08:42:49.104Z,98675.22
2024-03-02T08:45:17.717Z,98673.66
2024-03-02T08:47:45.415Z,98681.16
2024-03-02T08:50:13.077Z,98679.00
2024-03-02T08:52:41.337Z,98686.66
2024-03-02T08:55:12.253Z,98685.16
2024-03-02T08:57:40.295Z,98673.84
2024-03-02T09:00:09.313Z,98679.19
2024-03-02T09:02:37.343Z,98680.50
2024-03-02T09:05:06.325Z,98682.59
2024-03-02T09:07:33.906Z,98689.94
2024-03-02T09:10:01.557Z,98682.31
2024-03-02T09:12:30.555Z,98684.94
2024-03-02T09:14:58.500Z,98677.25
2024-03-02T09:17:26.141Z,98677.81
2024-03-02T09:19:54.288Z,98680.97
2024-03-02T09:22:22.448Z,98676.56
2024-03-02T09:24:50.054Z,98672.84
2024-03-02T09:27:17.671Z,98667.69
2024-03-02T09:29:46.572Z,98664.97
2024-03-02T09:32:15.625Z,98660.63
2024-03-02T09:34:44.329Z,98663.06
2024-03-02T09:37:12.147Z,98661.19
2024-03-02T09:39:39.787Z,98657.72
2024-03-02T09:42:08.177Z,98657.22
2024-03-02T09:44:35.902Z,98648.84
2024-03-02T09:47:05.272Z,98655.22
2024-03-02T09:49:33.126Z,98655.78
2024-03-02T09:52:01.137Z,98647.94
2024-03-02T09:54:29.812Z,98645.66
2024-03-02T09:56:57.658Z,98645.84
2024-03-02T09:59:25.336Z,98648.47
2024-03-02T10:02:00.439Z,98644.59
2024-03-02T10:04:30.752Z,98648.28
2024-03-02T10:07:13.072Z,98645.28
2024-03-02T10:09:41.064Z,98643.47
2024-03-02T10:12:11.197Z,98647.69
2024-03-02T10:14:39.077Z,98648.97
2024-03-02T10:17:08.413Z,98641.16
2024-03-02T10:19:38.259Z,98639.09
2024-03-02T10:22:07.232Z,98637.13
2024-03-02T10:24:39.922Z,98630.75
2024-03-02T10:27:12.337Z,98630.56
2024-03-02T10:29:41.622Z,98621.09
2024-03-02T10:32:12.159Z,98618.06
2024-03-02T10:34:42.326Z,98626.03
2024-03-02T10:37:10.603Z,98618.38
2024-03-02T10:39:40.829Z,98620.69
2024-03-02T10:42:10.139Z,98619.78
2024-03-02T10:44:37.757Z,98616.78
2024-03-02T10:47:06.676Z,98613.59
2024-03-02T10:49:35.145Z,98603.41
2024-03-02T10:52:05.087Z,98597.59
2024-03-02T10:54:37.981Z,98596.06
2024-03-02T10:57:10.529Z,98596.28
2024-03-02T10:59:40.830Z,98590.69
2024-03-02T11:02:11.024Z,98589.03
2024-03-02T11:04:40.151Z,98587.00
2024-03-02T11:07:12.006Z,98584.19
2024-03-02T11:09:44.214Z,98579.81
2024-03-02T11:12:15.449Z,98580.94
2024-03-02T11:14:45.172Z,98572.91
2024-03-02T11:17:16.744Z,98575.25
2024-03-02T11:19:46.334Z,98572.78
2024-03-02T11:22:16.819Z,98562.44
2024-03-02T11:24:52.325Z,98565.53
2024-03-02T11:27:54.003Z,98552.25
2024-03-02T11:34:31.717Z,98532.31
2024-03-02T11:37:00.163Z,98539.19
2024-03-02T11:39:30.451Z,98534.78
2024-03-02T11:42:00.248Z,98537.81
2024-03-02T11:44:28.658Z,98537.91
2024-03-02T11:47:00.649Z,98530.50
2024-03-02T11:49:39.756Z,98520.50
2024-03-02T11:52:09.136Z,98514.66
2024-03-02T11:54:40.572Z,98526.25
2024-03-02T11:57:09.780Z,98515.91
2024-03-02T11:59:37.414Z,98510.56
2024-03-02T12:02:05.353Z,98510.47
2024-03-02T12:04:33.116Z,98500.78
2024-03-02T12:07:02.415Z,98497.94
2024-03-02T12:09:31.149Z,98495.44
2024-03-02T12:12:10.580Z,98473.88
2024-03-02T12:14:40.096Z,98478.06
2024-03-02T12:17:08.066Z,98474.81
2024-03-02T12:19:35.924Z,98467.25
2024-03-02T12:22:04.158Z,98466.97
2024-03-02T12:24:32.214Z,98466.59
2024-03-02T12:27:00.541Z,98458.59
2024-03-02T12:29:29.670Z,98462.31
2024-03-02T12:31:57.434Z,98457.19
2024-03-02T12:34:25.734Z,98452.31
2024-03-02T12:36:54.387Z,98470.63
2024-03-02T12:39:24.036Z,98446.81
2024-03-02T12:41:52.622Z,98445.50
2024-03-02T12:44:20.367Z,98442.28
2024-03-02T12:46:49.366Z,98438.41
2024-03-02T12:49:17.929Z,98435.50
2024-03-02T12:51:48.146Z,98426.06
2024-03-02T12:54:16.539Z,98425.06
2024-03-02T12:56:46.471Z,98419.22
2024-03-02T12:59:20.243Z,98419.19
2024-03-02T13:01:53.929Z,98420.28
2024-03-02T13:04:24.752Z,98422.59
2024-03-02T13:06:53.581Z,98424.13
2024-03-02T13:09:21.619Z,98426.84
2024-03-02T13:11:49.426Z,98415.59
2024-03-02T13:14:17.336Z,98422.50
2024-03-02T13:16:49.212Z,98407.63
2024-03-02T13:19:20.095Z,98405.50
2024-03-02T13:21:47.925Z,98409.03
2024-03-02T13:24:15.599Z,98408.28
2024-03-02T13:26:43.292Z,98412.84
2024-03-02T13:29:11.007Z,98409.59
2024-03-02T13:31:38.665Z,98408.28
2024-03-02T13:34:06.380Z,98401.84
2024-03-02T13:36:35.411Z,98403.59
2024-03-02T13:39:03.927Z,98397.25
2024-03-02T13:41:31.715Z,98400.25
2024-03-02T13:44:02.146Z,98396.78
2024-03-02T13:46:29.811Z,98397.22
2024-03-02T13:48:57.795Z,98394.19
2024-03-02T13:51:26.546Z,98389.44
2024-03-02T13:53:55.565Z,98388.34
2024-03-02T13:56:23.458Z,98385.94
2024-03-02T13:58:51.122Z,98387.03
2024-03-02T14:01:18.828Z,98382.34
2024-03-02T14:03:47.577Z,98374.94
2024-03-02T14:06:15.420Z,98374.50
2024-03-02T14:08:45.843Z,98381.63
2024-03-02T14:11:16.554Z,98372.69
2024-03-02T14:13:45.436Z,98379.16
2024-03-02T14:16:13.176Z,98378.44
2024-03-02T14:18:40.872Z,98368.34
2024-03-02T14:21:09.751Z,98372.38
2024-03-02T14:23:37.348Z,98370.53
2024-03-02T14:26:05.482Z,98361.50
2024-03-02T14:28:48.138Z,98359.03
2024-03-02T14:31:18.810Z,98358.88
2024-03-02T14:33:46.759Z,98357.81
2024-03-02T14:36:14.807Z,98364.97
2024-03-02T14:38:42.609Z,98354.97
2024-03-02T14:41:10.307Z,98359.00
2024-03-02T14:43:39.361Z,98356.06
2024-03-02T14:46:09.417Z,98350.00
2024-03-02T14:48:37.319Z,98356.44
2024-03-02T14:51:06.206Z,98340.69
2024-03-02T14:53:33.814Z,98348.44
2024-03-02T14:56:01.435Z,98335.63
2024-03-02T14:58:29.073Z,98336.38
2024-03-02T15:00:58.386Z,98334.50
2024-03-02T15:03:26.093Z,98326.03
2024-03-02T15:05:54.795Z,98324.97
2024-03-02T15:08:22.566Z,98318.06
2024-03-02T15:10:50.258Z,98317.66
2024-03-02T15:13:18.439Z,98320.69
2024-03-02T15:15:46.244Z,98317.38
2024-03-02T15:18:15.335Z,98321.44
2024-03-02T15:20:43.028Z,98305.00
2024-03-02T15:23:10.643Z,98304.44
2024-03-02T15:25:38.296Z,98302.72
2024-03-02T15:28:06.786Z,98304.31
2024-03-02T15:30:34.554Z,98296.94
2024-03-02T15:33:02.242Z,98292.66
2024-03-02T15:35:31.302Z,98295.91
2024-03-02T15:37:58.983Z,98295.38
2024-03-02T15:40:27.184Z,98296.41
2024-03-02T15:42:54.871Z,98298.13
2024-03-02T15:45:22.574Z,98286.69
2024-03-02T15:47:50.308Z,98288.13
2024-03-02T15:50:18.450Z,98284.56
2024-03-02T15:52:47.994Z,98295.84
2024-03-02T15:55:16.781Z,98288.69
2024-03-02T15:57:44.498Z,98285.59
2024-03-02T16:00:13.030Z,98284.00
2024-03-02T16:02:40.648Z,98285.66
2024-03-02T16:05:08.807Z,98284.63
2024-03-02T16:07:36.507Z,98283.00
2024-03-02T16:10:08.691Z,98280.19
2024-03-02T16:12:36.541Z,98287.94
2024-03-02T16:15:05.883Z,98294.09
2024-03-02T16:17:33.493Z,98297.06
2024-03-02T16:20:01.127Z,98293.66
2024-03-02T16:22:28.750Z,98296.78
2024-03-02T16:24:56.358Z,98303.25
2024-03-02T16:27:25.701Z,98295.63
2024-03-02T16:29:55.842Z,98299.97
2024-03-02T16:32:23.553Z,98290.69
2024-03-02T16:34:52.862Z,98298.38
2024-03-02T16:37:21.378Z,98299.09
2024-03-02T16:39:49.674Z,98294.91
2024-03-02T16:42:17.409Z,98293.09
2024-03-02T16:44:48.633Z,98291.72
2024-03-02T16:47:16.470Z,98298.19
2024-03-02T16:49:46.164Z,98306.31
2024-03-02T16:52:15.445Z,98290.59
2024-03-02T16:54:43.135Z,98299.38
2024-03-02T16:57:11.469Z,98299.78
2024-03-02T16:59:39.077Z,98300.00
2024-03-02T17:02:08.054Z,98290.69
2024-03-02T17:04:35.659Z,98290.94
2024-03-02T17:07:03.340Z,98300.59
2024-03-02T17:09:31.102Z,98295.16
2024-03-02T17:11:58.755Z,98302.06
2024-03-02T17:14:27.090Z,98303.69
2024-03-02T17:16:54.695Z,98295.97
2024-03-02T17:19:23.693Z,98300.63
2024-03-02T17:21:51.317Z,98296.75
2024-03-02T17:24:18.928Z,98306.25
2024-03-02T17:26:46.528Z,98299.00
2024-03-02T17:29:14.138Z,98305.34
2024-03-02T17:31:41.794Z,98309.56
2024-03-02T17:34:09.426Z,98315.88
2024-03-02T17:36:38.464Z,98319.84
2024-03-02T17:39:06.165Z,98320.03
2024-03-02T17:41:34.194Z,98331.66
2024-03-02T17:44:01.791Z,98331.97
2024-03-02T17:46:29.504Z,98340.75
2024-03-02T17:48:57.133Z,98344.09
2024-03-02T17:51:25.498Z,98344.25
2024-03-02T17:53:54.474Z,98337.63
2024-03-02T17:56:22.097Z,98341.94
2024-03-02T17:58:50.030Z,98338.69
2024-03-02T18:01:18.198Z,98336.63
2024-03-02T18:03:45.917Z,98332.25
2024-03-02T18:06:15.377Z,98341.88
2024-03-02T18:08:43.146Z,98338.31
2024-03-02T18:11:12.282Z,98336.56
2024-03-02T18:13:39.947Z,98332.06
2024-03-02T18:16:07.988Z,98344.81
2024-03-02T18:18:35.767Z,98340.41
2024-03-02T18:21:05.787Z,98349.94
2024-03-02T18:23:33.431Z,98337.75
2024-03-02T18:26:01.032Z,98339.50
2024-03-02T18:28:30.003Z,98331.91
2024-03-02T18:30:59.451Z,98342.50
2024-03-02T18:33:27.242Z,98326.06
2024-03-02T18:35:56.415Z,98332.53
2024-03-02T18:38:24.642Z,98332.81
2024-03-02T18:40:52.293Z,98348.34
2024-03-02T18:43:20.233Z,98338.69
2024-03-02T18:45:49.288Z,98346.81
2024-03-02T18:48:17.008Z,98337.38
2024-03-02T18:50:44.671Z,98342.19
2024-03-02T18:53:13.906Z,98339.63
2024-03-02T18:55:41.693Z,98335.25
2024-03-02T18:58:09.406Z,98329.13
2024-03-02T19:00:37.171Z,98332.50
2024-03-02T19:03:08.688Z,98333.00
2024-03-02T19:05:38.867Z,98317.19
2024-03-02T19:08:07.342Z,98308.53
2024-03-02T19:10:34.912Z,98322.34
2024-03-02T19:13:02.534Z,98314.97
2024-03-02T19:15:30.148Z,98314.19
2024-03-02T19:17:57.847Z,98309.00
2024-03-02T19:20:26.818Z,98295.88
2024-03-02T19:22:55.480Z,98298.72
2024-03-02T19:25:23.269Z,98294.44
2024-03-02T19:27:50.863Z,98289.75
2024-03-02T19:30:18.511Z,98271.91
2024-03-02T19:32:46.237Z,98279.59
2024-03-02T19:35:14.173Z,98275.59
2024-03-02T19:37:43.195Z,98277.19
2024-03-02T19:40:12.054Z,98282.06
2024-03-02T19:42:39.725Z,98285.69
2024-03-02T19:45:08.191Z,98274.38
2024-03-02T19:47:36.218Z,98266.81
2024-03-02T19:50:05.331Z,98273.41
2024-03-02T19:52:33.266Z,98270.97
2024-03-02T19:55:02.858Z,98267.09
2024-03-02T19:57:30.860Z,98265.47
2024-03-02T19:59:58.560Z,98270.13
2024-03-02T20:02:28.000Z,98267.44
2024-03-02T20:04:55.696Z,98270.00
2024-03-02T20:07:23.273Z,98265.72
2024-03-02T20:09:51.636Z,98264.31
2024-03-02T20:12:20.630Z,98272.50
2024-03-02T20:14:48.243Z,98264.44
2024-03-02T20:17:16.802Z,98264.53
2024-03-02T20:19:44.364Z,98266.97
2024-03-02T20:22:12.220Z,98272.66
2024-03-02T20:24:39.896Z,98271.31
2024-03-02T20:27:08.109Z,98270.94
2024-03-02T20:29:37.063Z,98268.59
2024-03-02T20:32:04.885Z,98263.44
2024-03-02T20:34:32.495Z,98256.31
2024-03-02T20:37:01.682Z,98243.94
2024-03-02T20:39:29.322Z,98257.34
2024-03-02T20:41:56.898Z,98257.47
2024-03-02T20:44:27.003Z,98265.56
2024-03-02T20:46:56.162Z,98266.91
2024-03-02T20:49:24.752Z,98273.22
2024-03-02T20:51:52.577Z,98272.81
2024-03-02T20:54:20.174Z,98262.25
2024-03-02T20:56:47.781Z,98267.34
2024-03-02T20:59:15.409Z,98260.66
2024-03-02T21:01:44.513Z,98261.88
2024-03-02T21:04:15.747Z,98256.19
2024-03-02T21:06:44.749Z,98253.25
2024-03-02T21:09:12.381Z,98265.81
2024-03-02T21:11:40.041Z,98271.88
2024-03-02T21:14:07.648Z,98264.94
2024-03-02T21:16:35.242Z,98258.44
2024-03-02T21:19:02.827Z,98246.06
2024-03-02T21:21:31.826Z,98258.22
2024-03-02T21:23:58.497Z,98250.78
2024-03-02T21:26:26.595Z,98252.69
2024-03-02T21:28:54.153Z,98251.63
2024-03-02T21:31:21.825Z,98255.66
2024-03-02T21:33:49.492Z,98247.69
2024-03-02T21:36:17.069Z,98252.22
2024-03-02T21:38:45.999Z,98240.78
2024-03-02T21:41:13.578Z,98248.00
2024-03-02T21:43:42.849Z,98250.41
2024-03-02T21:46:12.584Z,98235.38
2024-03-02T21:48:40.782Z,98241.75
2024-03-02T21:51:08.528Z,98236.19
2024-03-02T21:53:37.918Z,98236.06
2024-03-02T21:56:08.759Z,98233.91
2024-03-02T21:58:36.514Z,98243.88
2024-03-02T22:01:04.273Z,98236.63
2024-03-02T22:03:32.755Z,98233.94
2024-03-02T22:06:00.496Z,98223.59
2024-03-02T22:08:28.654Z,98217.94
2024-03-02T22:10:56.551Z,98208.16
2024-03-02T22:13:25.521Z,98199.91
2024-03-02T22:15:53.148Z,98205.31
2024-03-02T22:18:20.748Z,98208.06
2024-03-02T22:20:48.812Z,98205.94
2024-03-02T22:23:16.746Z,98207.75
2024-03-02T22:25:44.384Z,98194.41
2024-03-02T22:28:12.014Z,98192.69
2024-03-02T22:30:40.973Z,98197.81
2024-03-02T22:33:08.627Z,98200.16
2024-03-02T22:35:36.277Z,98201.13
2024-03-02T22:38:04.007Z,98194.97
2024-03-02T22:40:31.968Z,98203.22
2024-03-02T22:43:00.248Z,98208.91
2024-03-02T22:45:27.873Z,98210.06
2024-03-02T22:47:56.832Z,98208.75
2024-03-02T22:50:25.057Z,98216.84
2024-03-02T22:52:52.925Z,98215.69
2024-03-02T22:55:20.829Z,98211.34
2024-03-02T22:57:48.498Z,98213.78
2024-03-02T23:00:32.214Z,98204.19
2024-03-02T23:03:01.441Z,98211.06
2024-03-02T23:05:29.194Z,98206.50
2024-03-02T23:07:57.139Z,98216.75
2024-03-02T23:10:24.831Z,98220.28
2024-03-02T23:12:52.875Z,98218.88
2024-03-02T23:15:20.503Z,98214.47
2024-03-02T23:17:48.267Z,98221.59
2024-03-02T23:20:17.477Z,98226.78
2024-03-02T23:22:45.898Z,98218.47
2024-03-02T23:25:13.596Z,98231.00
2024-03-02T23:27:41.260Z,98226.25
2024-03-02T23:30:10.882Z,98229.31
2024-03-02T23:32:38.512Z,98234.75
2024-03-02T23:35:06.494Z,98234.59
2024-03-02T23:37:35.426Z,98236.53
2024-03-02T23:40:34.211Z,98221.06
2024-03-02T23:43:01.912Z,98214.19
2024-03-02T23:45:29.545Z,98214.91
2024-03-02T23:47:57.261Z,98211.94
2024-03-02T23:50:25.074Z,98206.47
2024-03-02T23:52:53.991Z,98205.31
2024-03-02T23:55:22.962Z,98215.75
2024-03-02T23:57:51.873Z,98207.28
